Time;durP1;ratioP1;P1;durP2;ratioP2;P2;SDS_P1;SDS_P2;PMS_P1;PMS_P2;Temp;Humidity;BMP_temperature;BMP_pressure;BME280_temperature;BME280_humidity;BME280_pressure;Samples;Min_cycle;Max_cycle;Signal;HPM_P1;HPM_P2
2022/03/14 00:01:53;;;;;;;11.90;6.75;;;20.80;42.30;;;;;;4975163;28;20038;-73
2022/03/14 00:04:22;;;;;;;11.07;6.47;;;20.70;42.20;;;;;;4957689;28;20126;-72
2022/03/14 00:06:48;;;;;;;10.85;6.00;;;20.70;42.10;;;;;;4973755;28;20022;-71
2022/03/14 00:09:17;;;;;;;10.90;6.75;;;20.80;42.40;;;;;;4974926;28;20030;-72
2022/03/14 00:11:44;;;;;;;10.10;5.97;;;20.80;42.30;;;;;;4957515;28;20546;-71
2022/03/14 00:14:10;;;;;;;12.85;7.30;;;20.80;42.30;;;;;;4973438;28;20444;-71
2022/03/14 00:16:43;;;;;;;10.85;6.75;;;20.80;42.30;;;;;;4974986;28;20106;-72
2022/03/14 00:19:09;;;;;;;10.35;5.97;;;20.80;42.10;;;;;;4975080;28;20027;-73
2022/03/14 00:21:38;;;;;;;11.48;6.93;;;20.80;42.10;;;;;;4974679;28;20030;-72
2022/03/14 00:24:07;;;;;;;12.35;7.13;;;20.80;42.10;;;;;;5015711;23;20514;-72
2022/03/14 00:26:33;;;;;;;11.25;6.65;;;20.70;42.10;;;;;;5013612;28;20062;-72
2022/03/14 00:28:59;;;;;;;11.80;6.93;;;20.80;42.20;;;;;;5028734;28;20022;-72
2022/03/14 00:31:25;;;;;;;10.02;6.40;;;20.70;42.10;;;;;;4995887;28;20490;-72
2022/03/14 00:33:51;;;;;;;10.48;6.78;;;20.70;42.20;;;;;;5013889;28;20394;-72
2022/03/14 00:36:19;;;;;;;11.45;6.65;;;20.70;42.30;;;;;;5013545;28;20029;-71
2022/03/14 00:38:44;;;;;;;10.35;6.47;;;20.70;42.20;;;;;;5013657;28;20084;-72
2022/03/14 00:41:12;;;;;;;11.18;6.60;;;20.70;42.10;;;;;;5011933;28;20041;-72
2022/03/14 00:43:38;;;;;;;11.30;6.78;;;20.70;42.20;;;;;;5012320;28;20176;-72
2022/03/14 00:46:04;;;;;;;12.43;6.90;;;20.70;42.10;;;;;;5012422;28;20034;-72
2022/03/14 00:48:34;;;;;;;11.48;6.72;;;20.70;42.20;;;;;;4995943;28;20037;-72
2022/03/14 00:51:01;;;;;;;11.18;6.65;;;20.70;42.10;;;;;;5011718;28;20022;-72
2022/03/14 00:53:27;;;;;;;10.65;6.38;;;20.70;42.00;;;;;;5013239;28;20034;-72
2022/03/14 00:55:53;;;;;;;11.75;6.63;;;20.80;42.30;;;;;;5013257;28;20088;-72
2022/03/14 00:58:18;;;;;;;11.73;6.85;;;20.70;42.00;;;;;;4995805;28;20458;-72
2022/03/14 01:00:45;;;;;;;10.20;6.55;;;20.70;42.00;;;;;;5011749;28;20556;-72
2022/03/14 01:03:10;;;;;;;12.45;6.68;;;20.80;42.10;;;;;;5013092;28;20122;-72
2022/03/14 01:05:36;;;;;;;10.07;6.30;;;20.80;42.20;;;;;;5013108;28;20108;-73
2022/03/14 01:08:07;;;;;;;12.70;6.95;;;20.80;42.10;;;;;;5011957;28;20145;-72
2022/03/14 01:10:34;;;;;;;11.60;6.90;;;20.70;42.20;;;;;;5012574;28;20034;-72
2022/03/14 01:13:03;;;;;;;12.95;6.95;;;20.70;42.00;;;;;;5011931;28;20371;-72
2022/03/14 01:15:33;;;;;;;12.25;7.15;;;20.70;42.00;;;;;;5011814;28;20092;-72
2022/03/14 01:18:00;;;;;;;12.27;6.65;;;20.70;42.00;;;;;;5013077;28;20475;-72
2022/03/14 01:20:26;;;;;;;11.60;6.90;;;20.70;42.10;;;;;;5012474;28;20578;-72
2022/03/14 01:22:55;;;;;;;11.48;6.80;;;20.70;42.10;;;;;;5011598;28;20030;-73
2022/03/14 01:25:24;;;;;;;9.43;6.35;;;20.70;42.10;;;;;;5012804;28;20033;-72
2022/03/14 01:27:50;;;;;;;12.10;6.95;;;20.70;42.10;;;;;;5012652;28;20034;-71
2022/03/14 01:30:17;;;;;;;11.40;6.90;;;20.70;42.10;;;;;;5012429;28;20026;-71
2022/03/14 01:32:43;;;;;;;11.30;6.63;;;20.70;41.90;;;;;;5011343;28;20029;-72
2022/03/14 01:35:09;;;;;;;11.20;6.95;;;20.70;41.80;;;;;;4979002;28;20030;-72
2022/03/14 01:37:35;;;;;;;9.93;6.40;;;20.70;42.00;;;;;;5012589;28;20049;-73
2022/03/14 01:40:00;;;;;;;10.63;6.65;;;20.70;41.90;;;;;;5010907;28;20390;-72
2022/03/14 01:42:26;;;;;;;10.52;6.97;;;20.70;41.90;;;;;;5011715;28;20110;-72
2022/03/14 01:44:52;;;;;;;10.55;6.30;;;20.70;41.90;;;;;;5010954;28;20025;-72
2022/03/14 01:47:17;;;;;;;11.48;6.60;;;20.70;42.00;;;;;;4995014;28;20038;-72
2022/03/14 01:49:45;;;;;;;9.82;6.32;;;20.70;41.90;;;;;;5012375;28;20045;-72
2022/03/14 01:52:11;;;;;;;11.50;7.05;;;20.70;42.00;;;;;;5012138;28;20069;-72
2022/03/14 01:54:38;;;;;;;10.38;6.30;;;20.70;42.00;;;;;;5012600;28;20492;-72
2022/03/14 01:57:05;;;;;;;11.48;6.57;;;20.70;42.00;;;;;;5012107;28;20161;-72
2022/03/14 01:59:32;;;;;;;11.18;6.68;;;20.70;42.00;;;;;;5010839;28;20037;-72
2022/03/14 02:02:10;;;;;;;11.40;7.03;;;20.70;41.80;;;;;;5010594;28;20582;-72
2022/03/14 02:04:37;;;;;;;10.52;6.60;;;20.70;41.80;;;;;;5010672;28;20030;-72
2022/03/14 02:07:04;;;;;;;11.18;6.57;;;20.70;41.90;;;;;;5012105;28;20036;-72
2022/03/14 02:09:30;;;;;;;10.60;6.70;;;20.80;41.90;;;;;;4994270;28;20084;-72
2022/03/14 02:11:56;;;;;;;10.10;6.53;;;20.80;42.10;;;;;;5010832;28;20040;-71
2022/03/14 02:14:22;;;;;;;11.63;6.90;;;20.70;41.80;;;;;;5012206;28;20026;-72
2022/03/14 02:16:49;;;;;;;12.23;6.68;;;20.70;41.90;;;;;;5010419;28;20590;-73
2022/03/14 02:19:15;;;;;;;10.35;6.40;;;20.70;42.00;;;;;;5010581;28;20025;-72
2022/03/14 02:21:43;;;;;;;12.90;6.55;;;20.70;42.00;;;;;;5011657;28;20324;-72
2022/03/14 02:24:11;;;;;;;10.70;6.55;;;20.70;41.90;;;;;;5011717;28;20491;-72
2022/03/14 02:26:40;;;;;;;9.52;6.28;;;20.70;42.00;;;;;;5011687;28;20033;-72
2022/03/14 02:29:10;;;;;;;;;;;20.70;41.80;;;;;;5012032;28;20038;-72
2022/03/14 02:31:39;;;;;;;9.77;6.10;;;20.70;42.00;;;;;;5011284;28;19917;-72
2022/03/14 02:34:05;;;;;;;11.03;6.40;;;20.70;41.90;;;;;;5011752;28;20087;-72
2022/03/14 02:36:32;;;;;;;13.80;6.72;;;20.70;41.90;;;;;;5011654;28;20482;-72
2022/03/14 02:38:58;;;;;;;12.38;7.05;;;20.70;41.80;;;;;;5010265;28;20439;-72
2022/03/14 02:41:25;;;;;;;10.60;6.22;;;20.70;41.80;;;;;;5011030;28;20177;-72
2022/03/14 02:43:55;;;;;;;11.75;7.10;;;20.70;41.90;;;;;;5011437;28;20091;-72
2022/03/14 02:46:21;;;;;;;13.57;7.00;;;20.70;41.60;;;;;;5010322;28;20056;-72
2022/03/14 02:48:47;;;;;;;12.25;7.22;;;20.70;42.10;;;;;;5010350;28;20101;-72
2022/03/14 02:51:13;;;;;;;11.80;7.18;;;20.70;41.80;;;;;;5009730;28;20033;-72
2022/03/14 02:53:39;;;;;;;10.95;6.40;;;20.70;41.60;;;;;;5011634;28;20026;-72
2022/03/14 02:56:05;;;;;;;11.60;6.82;;;20.70;41.90;;;;;;5011830;28;20022;-72
2022/03/14 02:58:33;;;;;;;11.13;6.97;;;20.70;41.70;;;;;;5011467;28;20037;-71
2022/03/14 03:01:00;;;;;;;12.68;7.03;;;20.70;41.80;;;;;;5011082;28;20034;-72
2022/03/14 03:03:27;;;;;;;10.00;6.45;;;20.70;41.70;;;;;;5011296;28;20076;-71
2022/03/14 03:05:54;;;;;;;11.75;6.40;;;20.70;41.70;;;;;;5011509;28;20116;-72
2022/03/14 03:08:21;;;;;;;10.05;6.53;;;20.70;42.00;;;;;;5011329;28;20080;-73
2022/03/14 03:10:47;;;;;;;12.20;6.90;;;20.70;41.80;;;;;;5011182;28;20556;-71
2022/03/14 03:13:13;;;;;;;12.18;7.35;;;20.70;42.10;;;;;;4993671;28;20257;-71
2022/03/14 03:15:39;;;;;;;10.65;6.20;;;20.70;41.80;;;;;;5012200;28;20405;-71
2022/03/14 03:18:06;;;;;;;11.90;6.88;;;20.70;41.70;;;;;;5014124;28;20034;-72
2022/03/14 03:20:32;;;;;;;10.27;6.32;;;20.70;41.80;;;;;;5015066;28;20034;-71
2022/03/14 03:22:57;;;;;;;11.35;6.80;;;20.70;41.90;;;;;;5013711;28;20036;-71
2022/03/14 03:25:23;;;;;;;12.57;7.20;;;20.70;42.10;;;;;;5015295;28;20652;-72
2022/03/14 03:27:49;;;;;;;10.93;6.53;;;20.70;42.00;;;;;;5013670;28;20049;-73
2022/03/14 03:30:15;;;;;;;11.98;6.65;;;20.70;42.00;;;;;;5013398;28;20109;-71
2022/03/14 03:32:41;;;;;;;11.10;6.75;;;20.70;42.10;;;;;;5013870;28;20022;-72
2022/03/14 03:35:08;;;;;;;10.73;6.55;;;20.70;41.70;;;;;;5013885;28;20175;-71
2022/03/14 03:37:34;;;;;;;11.48;6.93;;;20.70;42.00;;;;;;5013696;28;20095;-73
2022/03/14 03:40:00;;;;;;;12.25;6.78;;;20.70;42.10;;;;;;5014652;28;20558;-71
2022/03/14 03:42:26;;;;;;;11.45;6.85;;;20.70;42.10;;;;;;5013791;28;20037;-71
2022/03/14 03:44:52;;;;;;;11.38;6.88;;;20.70;42.00;;;;;;5015232;28;20030;-72
2022/03/14 03:47:17;;;;;;;10.90;6.70;;;20.70;42.10;;;;;;5014954;28;20121;-72
2022/03/14 03:49:43;;;;;;;12.07;6.50;;;20.70;42.20;;;;;;5013184;28;20554;-71
2022/03/14 03:52:09;;;;;;;10.95;6.35;;;20.70;42.10;;;;;;5014782;28;20113;-72
2022/03/14 03:54:35;;;;;;;10.75;6.35;;;20.70;42.10;;;;;;5014459;28;20041;-70
2022/03/14 03:57:01;;;;;;;10.45;6.63;;;20.70;42.10;;;;;;5014480;28;20417;-71
2022/03/14 03:59:26;;;;;;;10.63;6.38;;;20.70;42.10;;;;;;5014332;28;20026;-72
2022/03/14 04:02:02;;;;;;;12.98;6.88;;;20.60;42.00;;;;;;5013235;28;20441;-71
2022/03/14 04:04:29;;;;;;;11.35;7.07;;;20.70;42.00;;;;;;5014158;28;20501;-72
2022/03/14 04:06:56;;;;;;;12.25;6.80;;;20.70;42.10;;;;;;4996671;28;20076;-72
2022/03/14 04:09:24;;;;;;;10.48;6.53;;;20.60;42.00;;;;;;5013809;28;20393;-72
2022/03/14 04:11:50;;;;;;;11.45;6.35;;;20.70;42.70;;;;;;5014051;28;20026;-72
2022/03/14 04:14:17;;;;;;;10.25;6.47;;;20.70;42.00;;;;;;5013914;28;20041;-72
2022/03/14 04:16:43;;;;;;;11.80;6.97;;;20.70;42.20;;;;;;5014085;28;20394;-72
2022/03/14 04:19:08;;;;;;;11.00;6.70;;;20.70;42.20;;;;;;5014202;28;20026;-72
2022/03/14 04:21:36;;;;;;;11.43;6.78;;;20.60;42.10;;;;;;5012573;28;20037;-72
2022/03/14 04:24:06;;;;;;;10.73;6.50;;;20.60;42.10;;;;;;5013557;28;20124;-71
2022/03/14 04:26:33;;;;;;;10.55;6.07;;;20.60;42.10;;;;;;5013418;28;20065;-72
2022/03/14 04:28:58;;;;;;;11.63;7.05;;;20.70;42.20;;;;;;5013811;28;20084;-72
2022/03/14 04:31:24;;;;;;;11.13;6.45;;;20.60;42.20;;;;;;5013285;28;20038;-71
2022/03/14 04:33:50;;;;;;;11.15;6.38;;;20.60;42.30;;;;;;5013618;28;20068;-72
2022/03/14 04:36:16;;;;;;;10.70;6.30;;;20.70;42.20;;;;;;5012580;28;20032;-72
2022/03/14 04:38:42;;;;;;;11.63;6.80;;;20.70;42.10;;;;;;5013897;28;20029;-72
2022/03/14 04:41:09;;;;;;;9.60;5.97;;;20.60;42.10;;;;;;5012400;28;20113;-71
2022/03/14 04:43:35;;;;;;;12.48;6.97;;;20.70;42.10;;;;;;5013531;28;20092;-72
2022/03/14 04:46:01;;;;;;;10.50;6.60;;;20.70;42.10;;;;;;4996243;28;20041;-71
2022/03/14 04:48:27;;;;;;;10.27;6.03;;;20.70;42.20;;;;;;5013558;28;20025;-72
2022/03/14 04:50:52;;;;;;;11.05;6.10;;;20.70;42.30;;;;;;5011751;28;20061;-72
2022/03/14 04:53:18;;;;;;;11.50;6.68;;;20.70;42.30;;;;;;5013216;28;20033;-72
2022/03/14 04:55:44;;;;;;;10.82;6.45;;;20.60;42.00;;;;;;5013548;28;20026;-72
2022/03/14 04:58:14;;;;;;;10.65;6.05;;;20.70;42.40;;;;;;5013283;28;20026;-72
2022/03/14 05:00:40;;;;;;;;;;;20.60;42.20;;;;;;5013524;28;20036;-71
2022/03/14 05:03:08;;;;;;;12.15;6.82;;;20.60;42.70;;;;;;5013152;28;19918;-72
2022/03/14 05:05:40;;;;;;;11.23;6.85;;;20.60;42.20;;;;;;5011906;28;20380;-71
2022/03/14 05:08:05;;;;;;;9.45;5.90;;;20.60;42.70;;;;;;5011860;28;20033;-72
2022/03/14 05:10:32;;;;;;;11.82;6.43;;;20.60;42.00;;;;;;5011543;28;20037;-72
2022/03/14 05:13:01;;;;;;;12.27;6.75;;;20.60;42.30;;;;;;5012915;28;20026;-72
2022/03/14 05:15:28;;;;;;;10.93;6.63;;;20.60;42.20;;;;;;5012951;28;20445;-71
2022/03/14 05:17:54;;;;;;;11.23;6.75;;;20.60;42.30;;;;;;5013015;28;20455;-71
2022/03/14 05:20:20;;;;;;;11.30;6.75;;;20.60;42.30;;;;;;5011395;28;20061;-71
2022/03/14 05:22:48;;;;;;;9.80;6.50;;;20.60;42.30;;;;;;5012804;28;20038;-71
2022/03/14 05:25:22;;;;;;;12.18;7.18;;;20.60;42.20;;;;;;5013014;28;20037;-71
2022/03/14 05:27:49;;;;;;;11.43;6.43;;;20.60;42.20;;;;;;5012787;28;20029;-71
2022/03/14 05:30:15;;;;;;;11.13;6.85;;;20.60;42.10;;;;;;5012500;28;20080;-71
2022/03/14 05:32:42;;;;;;;12.77;6.88;;;20.60;42.20;;;;;;5012448;28;20026;-71
2022/03/14 05:35:11;;;;;;;9.95;6.07;;;20.60;42.30;;;;;;4995391;28;20030;-71
2022/03/14 05:37:39;;;;;;;10.35;6.53;;;20.60;42.00;;;;;;5011872;28;20318;-72
2022/03/14 05:40:06;;;;;;;10.38;6.50;;;20.60;42.30;;;;;;5012136;28;20116;-71
2022/03/14 05:42:33;;;;;;;11.02;6.47;;;20.60;42.20;;;;;;5011517;28;20084;-71
2022/03/14 05:44:59;;;;;;;12.90;6.85;;;20.60;42.10;;;;;;5011450;28;20068;-71
2022/03/14 05:47:24;;;;;;;11.07;6.80;;;20.60;42.10;;;;;;5011080;28;20066;-71
2022/03/14 05:49:50;;;;;;;11.88;6.90;;;20.60;42.20;;;;;;5012312;28;20105;-72
2022/03/14 05:52:17;;;;;;;11.45;6.90;;;20.60;42.20;;;;;;4994547;28;20041;-72
2022/03/14 05:54:42;;;;;;;11.43;6.47;;;20.60;42.30;;;;;;5012404;28;20021;-71
2022/03/14 05:57:08;;;;;;;13.43;6.88;;;20.60;42.00;;;;;;4994701;28;20026;-71
2022/03/14 05:59:34;;;;;;;10.57;7.13;;;20.60;41.90;;;;;;5011802;28;20041;-72
2022/03/14 06:01:59;;;;;;;10.45;6.80;;;20.60;41.90;;;;;;5012150;28;20029;-71
2022/03/14 06:04:26;;;;;;;11.07;6.82;;;20.60;42.10;;;;;;5012128;28;20034;-71
2022/03/14 06:06:51;;;;;;;11.05;6.10;;;20.60;42.30;;;;;;5012230;28;20034;-71
2022/03/14 06:09:17;;;;;;;10.85;6.40;;;20.60;42.30;;;;;;5011910;28;20503;-71
2022/03/14 06:11:43;;;;;;;12.35;6.60;;;20.60;42.00;;;;;;5011678;28;20041;-72
2022/03/14 06:14:10;;;;;;;10.48;6.60;;;20.60;42.00;;;;;;5010681;28;20124;-71
2022/03/14 06:16:36;;;;;;;12.20;7.05;;;20.60;41.90;;;;;;5012485;28;20035;-71
2022/03/14 06:19:01;;;;;;;11.45;7.10;;;20.60;41.80;;;;;;5011866;28;20026;-71
2022/03/14 06:21:27;;;;;;;11.13;6.53;;;20.60;42.10;;;;;;5010444;28;20029;-72
2022/03/14 06:23:54;;;;;;;11.98;6.80;;;20.60;41.90;;;;;;4994542;28;20041;-72
2022/03/14 06:26:19;;;;;;;11.20;6.95;;;20.60;41.90;;;;;;5011101;28;20029;-72
2022/03/14 06:28:45;;;;;;;13.77;7.40;;;20.60;42.10;;;;;;5011630;28;20032;-72
2022/03/14 06:31:11;;;;;;;11.32;6.80;;;20.60;42.00;;;;;;5011123;28;20034;-72
2022/03/14 06:33:38;;;;;;;12.07;6.97;;;20.60;41.90;;;;;;5011430;28;20061;-72
2022/03/14 06:36:04;;;;;;;10.90;6.75;;;20.60;42.20;;;;;;5010725;28;20188;-72
2022/03/14 06:38:32;;;;;;;13.13;6.93;;;20.60;42.20;;;;;;5011534;28;20036;-72
2022/03/14 06:40:57;;;;;;;10.50;6.72;;;20.60;42.10;;;;;;4993745;28;20057;-72
2022/03/14 06:43:24;;;;;;;11.45;6.75;;;20.60;42.20;;;;;;5010244;28;20034;-72
2022/03/14 06:45:50;;;;;;;11.02;6.80;;;20.60;41.90;;;;;;5010506;28;20040;-71
2022/03/14 06:48:16;;;;;;;12.45;7.20;;;20.60;42.20;;;;;;5010267;28;20026;-72
2022/03/14 06:50:43;;;;;;;11.88;6.80;;;20.60;41.90;;;;;;5009694;28;20026;-72
2022/03/14 06:53:08;;;;;;;11.80;7.18;;;20.60;41.90;;;;;;5010001;28;20037;-72
2022/03/14 06:55:34;;;;;;;12.55;7.38;;;20.60;42.00;;;;;;5010299;28;20034;-72
2022/03/14 06:58:00;;;;;;;13.23;7.78;;;20.60;42.00;;;;;;5010150;28;20116;-72
2022/03/14 07:00:27;;;;;;;12.18;7.45;;;20.70;41.90;;;;;;5011000;28;20030;-72
2022/03/14 07:02:55;;;;;;;12.02;7.28;;;20.70;41.90;;;;;;5011434;28;20495;-72
2022/03/14 07:05:23;;;;;;;10.93;6.57;;;20.70;41.90;;;;;;5010322;28;20100;-72
2022/03/14 07:07:52;;;;;;;12.68;7.55;;;20.70;41.80;;;;;;5010115;28;20491;-72
2022/03/14 07:10:19;;;;;;;11.63;6.95;;;20.70;41.80;;;;;;5011028;28;20029;-72
2022/03/14 07:12:48;;;;;;;11.07;7.38;;;20.70;41.80;;;;;;5011106;28;20034;-72
2022/03/14 07:15:21;;;;;;;13.43;7.78;;;20.70;41.80;;;;;;5011285;28;20449;-72
2022/03/14 07:17:50;;;;;;;11.05;6.53;;;20.70;41.70;;;;;;5011415;28;20033;-72
2022/03/14 07:20:18;;;;;;;12.30;7.68;;;20.70;41.80;;;;;;5010202;28;20026;-72
2022/03/14 07:22:58;;;;;;;12.55;7.35;;;20.70;41.70;;;;;;5009796;28;20045;-72
2022/03/14 07:25:30;;;;;;;10.45;6.68;;;20.70;41.80;;;;;;4993646;28;20030;-72
2022/03/14 07:27:59;;;;;;;12.32;7.13;;;20.70;41.80;;;;;;5011185;28;20058;-72
2022/03/14 07:30:25;;;;;;;12.60;7.90;;;20.70;41.80;;;;;;5010838;28;20115;-72
2022/03/14 07:32:52;;;;;;;13.10;7.25;;;20.70;41.80;;;;;;5009821;28;20109;-72
2022/03/14 07:35:18;;;;;;;12.52;7.32;;;20.70;41.70;;;;;;5010945;28;20026;-72
2022/03/14 07:37:44;;;;;;;12.13;7.05;;;20.70;41.90;;;;;;5010908;28;20092;-72
2022/03/14 07:40:11;;;;;;;11.00;6.88;;;20.70;41.90;;;;;;5009382;28;20029;-72
2022/03/14 07:42:45;;;;;;;11.32;6.78;;;20.70;42.20;;;;;;5011068;28;20037;-72
2022/03/14 07:45:13;;;;;;;11.38;6.63;;;20.80;42.40;;;;;;5010977;28;20032;-72
2022/03/14 07:47:39;;;;;;;11.80;6.38;;;20.80;42.60;;;;;;5010917;28;20069;-72
2022/03/14 07:50:06;;;;;;;11.40;7.00;;;20.80;42.60;;;;;;5010445;28;20030;-72
2022/03/14 07:52:32;;;;;;;11.48;6.97;;;20.80;42.60;;;;;;5010923;28;20096;-72
2022/03/14 07:54:58;;;;;;;12.45;7.03;;;20.80;42.60;;;;;;5011049;28;20029;-72
2022/03/14 07:57:24;;;;;;;10.77;6.60;;;20.80;42.60;;;;;;5011031;28;20026;-72
2022/03/14 07:59:51;;;;;;;11.13;6.95;;;20.80;42.80;;;;;;5009220;28;20033;-73
2022/03/14 08:02:17;;;;;;;11.27;6.80;;;20.80;42.80;;;;;;5013602;28;20390;-72
2022/03/14 08:04:42;;;;;;;11.27;6.40;;;20.90;42.80;;;;;;5014069;28;20030;-71
2022/03/14 08:07:08;;;;;;;12.27;7.32;;;20.90;42.80;;;;;;5014319;28;20498;-73
2022/03/14 08:09:34;;;;;;;11.40;6.63;;;20.90;42.90;;;;;;5013843;28;20049;-72
2022/03/14 08:12:01;;;;;;;11.95;7.30;;;20.90;42.90;;;;;;5014113;28;20080;-72
2022/03/14 08:14:27;;;;;;;11.93;6.93;;;20.90;42.90;;;;;;5014247;28;20018;-72
2022/03/14 08:16:53;;;;;;;10.90;7.03;;;20.90;42.90;;;;;;5012831;28;20386;-72
2022/03/14 08:19:20;;;;;;;12.90;7.00;;;20.90;42.90;;;;;;4996192;28;20474;-72
2022/03/14 08:21:47;;;;;;;11.07;6.68;;;20.90;42.90;;;;;;4996422;28;20103;-72
2022/03/14 08:24:14;;;;;;;12.98;7.15;;;21.00;42.90;;;;;;5013729;28;20108;-72
2022/03/14 08:26:40;;;;;;;10.57;6.68;;;21.00;42.90;;;;;;5014101;28;20034;-72
2022/03/14 08:29:10;;;;;;;11.82;7.03;;;21.00;42.80;;;;;;5013615;28;20061;-72
2022/03/14 08:31:36;;;;;;;11.10;6.80;;;21.00;43.00;;;;;;5013510;28;20065;-72
2022/03/14 08:34:02;;;;;;;9.82;6.18;;;21.00;42.90;;;;;;5012336;28;20465;-72
2022/03/14 08:36:28;;;;;;;12.40;6.95;;;21.00;42.90;;;;;;5013930;28;20026;-72
2022/03/14 08:38:54;;;;;;;11.48;6.55;;;21.00;42.90;;;;;;5012495;28;20442;-72
2022/03/14 08:41:20;;;;;;;11.27;6.97;;;21.00;42.90;;;;;;5013269;28;20061;-72
2022/03/14 08:43:46;;;;;;;11.50;6.40;;;21.00;42.90;;;;;;5013424;28;20026;-72
2022/03/14 08:46:15;;;;;;;11.32;6.93;;;21.00;42.90;;;;;;5013804;28;20087;-72
2022/03/14 08:48:41;;;;;;;12.50;7.38;;;21.00;42.90;;;;;;5013451;28;20034;-72
2022/03/14 08:51:07;;;;;;;12.35;7.28;;;21.00;42.90;;;;;;5013082;28;20037;-72
2022/03/14 08:53:33;;;;;;;11.15;6.82;;;21.00;43.00;;;;;;5012184;28;20026;-72
2022/03/14 08:56:03;;;;;;;10.27;6.22;;;21.00;43.00;;;;;;4980103;28;20434;-73
2022/03/14 08:58:29;;;;;;;11.15;6.75;;;21.00;43.00;;;;;;5013464;28;20030;-73
2022/03/14 09:00:59;;;;;;;12.65;7.00;;;21.10;43.10;;;;;;5011550;28;20449;-72
2022/03/14 09:03:28;;;;;;;9.50;6.17;;;21.10;43.10;;;;;;5012141;28;20452;-72
2022/03/14 09:05:56;;;;;;;12.93;7.47;;;21.10;43.10;;;;;;5011964;28;20280;-72
2022/03/14 09:08:26;;;;;;;10.65;6.50;;;21.10;43.10;;;;;;5013187;28;20037;-73
2022/03/14 09:10:53;;;;;;;11.93;6.45;;;21.10;43.10;;;;;;5012592;28;20097;-72
2022/03/14 09:13:21;;;;;;;12.80;7.30;;;21.10;43.10;;;;;;5012016;28;20026;-73
2022/03/14 09:15:48;;;;;;;10.80;6.32;;;21.10;43.10;;;;;;5011878;28;20030;-73
2022/03/14 09:18:14;;;;;;;10.60;6.65;;;21.10;43.70;;;;;;5012209;28;20127;-73
2022/03/14 09:20:41;;;;;;;11.27;6.80;;;21.10;43.10;;;;;;5012793;28;20022;-72
2022/03/14 09:23:07;;;;;;;11.70;7.05;;;21.10;43.10;;;;;;5012843;28;20486;-73
2022/03/14 09:25:33;;;;;;;10.07;6.13;;;21.10;43.10;;;;;;5012790;28;20030;-73
2022/03/14 09:27:59;;;;;;;12.63;7.32;;;21.10;43.10;;;;;;5012690;28;20026;-72
2022/03/14 09:30:25;;;;;;;11.25;6.55;;;21.20;43.10;;;;;;5012197;28;20041;-73
2022/03/14 09:32:53;;;;;;;11.68;6.82;;;21.20;43.10;;;;;;5011427;28;20030;-72
2022/03/14 09:35:20;;;;;;;11.38;6.95;;;21.20;43.10;;;;;;5012721;28;20021;-73
2022/03/14 09:37:47;;;;;;;10.88;6.63;;;21.20;43.10;;;;;;5012580;28;20018;-73
2022/03/14 09:40:17;;;;;;;10.38;6.50;;;21.10;43.10;;;;;;5012181;28;20092;-73
2022/03/14 09:42:45;;;;;;;11.20;6.95;;;21.20;43.10;;;;;;5012491;28;20030;-72
2022/03/14 09:45:16;;;;;;;9.80;6.10;;;21.20;43.20;;;;;;5012463;28;20026;-73
2022/03/14 09:47:47;;;;;;;11.40;6.78;;;21.20;43.20;;;;;;5012619;28;20343;-72
2022/03/14 09:50:30;;;;;;;10.77;6.70;;;21.20;43.20;;;;;;5012051;28;20030;-73
2022/03/14 09:52:58;;;;;;;10.38;5.97;;;21.20;43.20;;;;;;5012137;28;20026;-73
2022/03/14 09:55:24;;;;;;;10.70;6.15;;;21.20;43.20;;;;;;5012207;28;20144;-73
2022/03/14 09:57:50;;;;;;;10.40;6.72;;;21.20;43.10;;;;;;5012208;28;20113;-73
2022/03/14 10:00:17;;;;;;;10.45;6.28;;;21.10;43.00;;;;;;5011800;28;20310;-73
2022/03/14 10:02:43;;;;;;;10.52;6.30;;;21.10;43.10;;;;;;5012101;28;20034;-72
2022/03/14 10:05:11;;;;;;;11.27;6.68;;;21.20;43.20;;;;;;5012015;28;20028;-73
2022/03/14 10:07:39;;;;;;;11.00;6.70;;;21.10;43.20;;;;;;5011066;28;20034;-72
2022/03/14 10:10:07;;;;;;;12.10;6.97;;;21.10;43.10;;;;;;5011559;28;20489;-73
2022/03/14 10:12:33;;;;;;;10.32;6.65;;;21.10;43.00;;;;;;5011734;28;20029;-73
2022/03/14 10:15:01;;;;;;;10.77;6.57;;;21.10;43.10;;;;;;4994286;28;20018;-73
2022/03/14 10:17:27;;;;;;;11.10;6.43;;;21.10;43.10;;;;;;5011855;28;20037;-73
2022/03/14 10:19:54;;;;;;;10.43;6.25;;;21.10;43.20;;;;;;5011510;28;20026;-73
2022/03/14 10:22:20;;;;;;;10.50;6.47;;;21.10;43.20;;;;;;5011613;28;20105;-73
2022/03/14 10:24:48;;;;;;;10.95;6.35;;;21.10;43.20;;;;;;5010728;28;20061;-73
2022/03/14 10:27:18;;;;;;;10.93;6.20;;;21.10;43.20;;;;;;4994213;28;20038;-73
2022/03/14 10:29:46;;;;;;;10.45;6.28;;;21.20;43.30;;;;;;5011627;28;20091;-73
2022/03/14 10:35:10;;;;;;;10.65;6.53;;;21.20;43.30;;;;;;5003046;28;20042;-72
2022/03/14 10:37:36;;;;;;;10.35;6.35;;;21.20;43.40;;;;;;5010670;28;20040;-73
2022/03/14 10:40:08;;;;;;;11.35;6.40;;;21.20;43.40;;;;;;5010406;28;20037;-72
2022/03/14 10:42:42;;;;;;;9.95;6.00;;;21.20;43.40;;;;;;5010632;28;20038;-73
2022/03/14 10:45:18;;;;;;;10.77;6.28;;;21.20;43.40;;;;;;5011836;28;20037;-72
2022/03/14 10:47:51;;;;;;;11.40;6.72;;;21.20;43.40;;;;;;5010597;28;20045;-73
2022/03/14 10:50:31;;;;;;;10.98;6.20;;;21.20;43.40;;;;;;5011277;28;20026;-73
2022/03/14 10:53:04;;;;;;;9.25;5.75;;;21.20;43.40;;;;;;5011698;28;20094;-73
2022/03/14 10:55:41;;;;;;;10.07;5.80;;;21.20;43.30;;;;;;5011527;28;20441;-73
2022/03/14 10:58:08;;;;;;;9.98;6.43;;;21.20;43.30;;;;;;5011741;28;20030;-73
2022/03/14 11:00:44;;;;;;;9.60;6.22;;;21.10;43.30;;;;;;5011375;28;20041;-73
2022/03/14 11:03:10;;;;;;;10.45;6.32;;;21.10;43.40;;;;;;5010367;28;20033;-73
2022/03/14 11:05:43;;;;;;;10.32;6.20;;;21.10;43.30;;;;;;5011544;28;20026;-73
2022/03/14 11:08:30;;;;;;;10.27;6.63;;;21.10;43.30;;;;;;5011488;28;20053;-73
2022/03/14 11:10:57;;;;;;;10.27;6.45;;;21.10;43.30;;;;;;5010787;28;20398;-73
2022/03/14 11:13:24;;;;;;;10.43;6.47;;;21.10;43.30;;;;;;5011533;28;20045;-72
2022/03/14 11:15:50;;;;;;;10.52;6.38;;;21.10;43.30;;;;;;5010028;28;20026;-73
2022/03/14 11:18:19;;;;;;;9.95;5.55;;;21.10;43.40;;;;;;5010519;28;20497;-73
2022/03/14 11:20:46;;;;;;;9.75;6.32;;;21.10;43.40;;;;;;5009612;28;20045;-73
2022/03/14 11:23:14;;;;;;;10.95;6.40;;;21.10;43.40;;;;;;5010201;28;20037;-73
2022/03/14 11:25:43;;;;;;;10.60;6.10;;;21.10;43.40;;;;;;5010220;28;20077;-73
2022/03/14 11:28:20;;;;;;;9.73;6.00;;;21.10;43.50;;;;;;5011131;28;20099;-73
2022/03/14 11:31:00;;;;;;;10.20;6.20;;;21.10;43.50;;;;;;5009784;28;20042;-73
2022/03/14 11:33:29;;;;;;;10.60;6.40;;;21.10;43.50;;;;;;5011152;28;20026;-73
2022/03/14 11:35:54;;;;;;;10.77;6.40;;;21.10;43.50;;;;;;5012036;28;20113;-74
2022/03/14 11:38:21;;;;;;;9.55;6.10;;;21.10;43.50;;;;;;5014920;28;20438;-74
2022/03/14 11:40:49;;;;;;;7.70;5.70;;;21.10;43.50;;;;;;5013207;28;20110;-73
2022/03/14 11:43:16;;;;;;;10.20;5.88;;;21.10;43.50;;;;;;5013461;28;20437;-73
2022/03/14 11:45:42;;;;;;;11.68;6.30;;;21.10;43.50;;;;;;5014810;28;20390;-73
2022/03/14 11:48:09;;;;;;;9.40;5.97;;;21.10;43.50;;;;;;5013525;28;20026;-73
2022/03/14 11:50:45;;;;;;;10.10;6.03;;;21.10;43.40;;;;;;5014270;28;20030;-73
2022/03/14 11:53:19;;;;;;;9.52;6.07;;;21.10;43.40;;;;;;5014428;28;20033;-74
2022/03/14 11:56:04;;;;;;;10.45;6.03;;;21.10;43.50;;;;;;5014594;28;20497;-73
2022/03/14 11:58:37;;;;;;;10.63;6.10;;;21.10;43.40;;;;;;5014554;28;20033;-73
2022/03/14 12:01:18;;;;;;;9.40;6.10;;;21.10;43.50;;;;;;5013288;28;20034;-73
2022/03/14 12:03:54;;;;;;;10.98;6.47;;;21.10;43.50;;;;;;5014383;28;20038;-73
2022/03/14 12:06:45;;;;;;;10.07;6.22;;;21.10;43.60;;;;;;5014268;28;20503;-74
2022/03/14 12:09:33;;;;;;;9.60;6.20;;;21.10;43.60;;;;;;5014281;28;20500;-73
2022/03/14 12:12:19;;;;;;;11.10;6.20;;;21.10;43.60;;;;;;5014052;28;20041;-72
2022/03/14 12:14:56;;;;;;;9.98;6.03;;;21.10;43.60;;;;;;4999088;28;20585;-73
2022/03/14 12:17:27;;;;;;;10.40;5.85;;;21.00;43.60;;;;;;5014157;28;20100;-73
2022/03/14 12:19:58;;;;;;;9.85;6.05;;;21.00;43.60;;;;;;5013929;28;20026;-73
2022/03/14 12:22:33;;;;;;;10.32;6.28;;;21.00;43.60;;;;;;5013446;28;20034;-74
2022/03/14 12:25:00;;;;;;;10.07;6.05;;;21.00;43.60;;;;;;4990770;28;20242;-71
2022/03/14 12:27:29;;;;;;;9.40;5.78;;;21.00;43.60;;;;;;4993581;28;20026;-72
2022/03/14 12:29:56;;;;;;;9.82;5.78;;;21.00;43.60;;;;;;4994148;28;20514;-71
2022/03/14 12:32:54;;;;;;;8.75;5.47;;;21.00;43.60;;;;;;4993999;28;20554;-71
2022/03/14 12:35:22;;;;;;;9.68;6.18;;;21.00;43.60;;;;;;4994389;28;20080;-72
2022/03/14 12:38:11;;;;;;;9.77;6.15;;;21.00;43.60;;;;;;4976912;28;20125;-71
2022/03/14 12:40:37;;;;;;;9.55;5.65;;;21.00;43.60;;;;;;4993970;28;20026;-71
2022/03/14 12:43:20;;;;;;;10.05;5.63;;;21.00;43.60;;;;;;4994199;28;20027;-71
2022/03/14 12:45:58;;;;;;;9.25;5.85;;;21.00;43.60;;;;;;4994315;28;20147;-72